sensor_id;sensor_type;location;lat;lon;timestamp;P1;durP1;ratioP1;P2;durP2;ratioP2
11531;SDS011;5822;51.000;5.874;2023-07-13T00:47:47;16.20;;;15.40;;
11531;SDS011;5822;51.000;5.874;2023-07-13T00:50:13;16.30;;;15.40;;
11531;SDS011;5822;51.000;5.874;2023-07-13T00:52:41;16.50;;;15.60;;
11531;SDS011;5822;51.000;5.874;2023-07-13T00:55:11;16.40;;;15.50;;
11531;SDS011;5822;51.000;5.874;2023-07-13T00:57:38;16.65;;;15.75;;
11531;SDS011;5822;51.000;5.874;2023-07-13T01:00:05;15.80;;;15.00;;
11531;SDS011;5822;51.000;5.874;2023-07-13T01:02:34;15.90;;;15.10;;
11531;SDS011;5822;51.000;5.874;2023-07-13T01:05:08;16.20;;;15.30;;
11531;SDS011;5822;51.000;5.874;2023-07-13T01:07:34;15.95;;;15.05;;
11531;SDS011;5822;51.000;5.874;2023-07-13T01:10:02;15.90;;;15.10;;
11531;SDS011;5822;51.000;5.874;2023-07-13T01:12:28;16.33;;;15.43;;
11531;SDS011;5822;51.000;5.874;2023-07-13T01:14:59;15.90;;;15.10;;
11531;SDS011;5822;51.000;5.874;2023-07-13T01:17:26;15.73;;;14.93;;
11531;SDS011;5822;51.000;5.874;2023-07-13T01:19:53;16.20;;;15.40;;
11531;SDS011;5822;51.000;5.874;2023-07-13T01:22:19;16.37;;;15.47;;
11531;SDS011;5822;51.000;5.874;2023-07-13T01:24:50;16.40;;;15.60;;
11531;SDS011;5822;51.000;5.874;2023-07-13T01:27:16;16.75;;;15.85;;
11531;SDS011;5822;51.000;5.874;2023-07-13T01:29:45;16.05;;;15.25;;
11531;SDS011;5822;51.000;5.874;2023-07-13T01:32:17;16.37;;;15.47;;
11531;SDS011;5822;51.000;5.874;2023-07-13T01:34:47;16.20;;;15.30;;
11531;SDS011;5822;51.000;5.874;2023-07-13T01:37:13;15.93;;;15.13;;
11531;SDS011;5822;51.000;5.874;2023-07-13T01:39:39;15.98;;;15.10;;
11531;SDS011;5822;51.000;5.874;2023-07-13T01:42:05;16.17;;;15.38;;
11531;SDS011;5822;51.000;5.874;2023-07-13T01:44:31;16.17;;;15.32;;
11531;SDS011;5822;51.000;5.874;2023-07-13T01:46:56;16.00;;;15.10;;
11531;SDS011;5822;51.000;5.874;2023-07-13T01:49:22;15.77;;;14.97;;
11531;SDS011;5822;51.000;5.874;2023-07-13T01:51:48;15.70;;;14.90;;
11531;SDS011;5822;51.000;5.874;2023-07-13T01:54:14;16.00;;;15.20;;
11531;SDS011;5822;51.000;5.874;2023-07-13T01:56:39;15.90;;;15.00;;
11531;SDS011;5822;51.000;5.874;2023-07-13T01:59:06;15.87;;;15.07;;
11531;SDS011;5822;51.000;5.874;2023-07-13T02:01:33;16.02;;;15.13;;
11531;SDS011;5822;51.000;5.874;2023-07-13T02:03:58;16.00;;;15.10;;
11531;SDS011;5822;51.000;5.874;2023-07-13T02:06:24;16.10;;;15.20;;
11531;SDS011;5822;51.000;5.874;2023-07-13T02:08:50;16.13;;;15.23;;
11531;SDS011;5822;51.000;5.874;2023-07-13T02:11:16;16.20;;;15.30;;
11531;SDS011;5822;51.000;5.874;2023-07-13T02:13:42;15.90;;;15.10;;
11531;SDS011;5822;51.000;5.874;2023-07-13T02:16:07;15.60;;;14.80;;
11531;SDS011;5822;51.000;5.874;2023-07-13T02:18:33;16.30;;;15.40;;
11531;SDS011;5822;51.000;5.874;2023-07-13T02:20:58;16.38;;;15.48;;
11531;SDS011;5822;51.000;5.874;2023-07-13T02:23:24;16.70;;;15.80;;
11531;SDS011;5822;51.000;5.874;2023-07-13T02:25:54;17.60;;;16.60;;
11531;SDS011;5822;51.000;5.874;2023-07-13T02:28:23;17.30;;;16.30;;
11531;SDS011;5822;51.000;5.874;2023-07-13T02:30:49;16.77;;;15.88;;
11531;SDS011;5822;51.000;5.874;2023-07-13T02:33:14;16.50;;;15.60;;
11531;SDS011;5822;51.000;5.874;2023-07-13T02:35:40;16.60;;;15.70;;
11531;SDS011;5822;51.000;5.874;2023-07-13T02:38:06;15.97;;;15.13;;
11531;SDS011;5822;51.000;5.874;2023-07-13T02:40:32;16.20;;;15.40;;
11531;SDS011;5822;51.000;5.874;2023-07-13T02:43:01;15.70;;;14.90;;
11531;SDS011;5822;51.000;5.874;2023-07-13T02:45:27;15.93;;;15.10;;
11531;SDS011;5822;51.000;5.874;2023-07-13T02:47:53;16.13;;;15.25;;
11531;SDS011;5822;51.000;5.874;2023-07-13T02:50:19;16.50;;;15.60;;
11531;SDS011;5822;51.000;5.874;2023-07-13T02:52:44;16.58;;;15.68;;
11531;SDS011;5822;51.000;5.874;2023-07-13T02:55:10;16.70;;;15.80;;
11531;SDS011;5822;51.000;5.874;2023-07-13T02:57:35;16.40;;;15.50;;
11531;SDS011;5822;51.000;5.874;2023-07-13T03:00:02;16.05;;;15.15;;
11531;SDS011;5822;51.000;5.874;2023-07-13T03:02:33;15.90;;;15.10;;
11531;SDS011;5822;51.000;5.874;2023-07-13T03:04:59;16.20;;;15.30;;
11531;SDS011;5822;51.000;5.874;2023-07-13T03:07:25;16.40;;;15.50;;
11531;SDS011;5822;51.000;5.874;2023-07-13T03:09:57;16.50;;;15.60;;
11531;SDS011;5822;51.000;5.874;2023-07-13T03:12:23;16.90;;;15.90;;
11531;SDS011;5822;51.000;5.874;2023-07-13T03:14:49;16.50;;;15.60;;
11531;SDS011;5822;51.000;5.874;2023-07-13T03:17:15;16.52;;;15.63;;
11531;SDS011;5822;51.000;5.874;2023-07-13T03:19:41;16.48;;;15.57;;
11531;SDS011;5822;51.000;5.874;2023-07-13T03:22:07;16.30;;;15.40;;
11531;SDS011;5822;51.000;5.874;2023-07-13T03:24:33;16.13;;;15.23;;
11531;SDS011;5822;51.000;5.874;2023-07-13T03:27:00;15.70;;;14.90;;
11531;SDS011;5822;51.000;5.874;2023-07-13T03:29:27;15.97;;;15.10;;
11531;SDS011;5822;51.000;5.874;2023-07-13T03:31:53;16.00;;;15.10;;
11531;SDS011;5822;51.000;5.874;2023-07-13T03:34:18;15.50;;;14.70;;
11531;SDS011;5822;51.000;5.874;2023-07-13T03:36:44;16.00;;;15.10;;
11531;SDS011;5822;51.000;5.874;2023-07-13T03:39:10;15.80;;;15.00;;
11531;SDS011;5822;51.000;5.874;2023-07-13T03:41:36;15.98;;;15.18;;
11531;SDS011;5822;51.000;5.874;2023-07-13T03:44:01;16.30;;;15.40;;
11531;SDS011;5822;51.000;5.874;2023-07-13T03:46:27;16.40;;;15.50;;
11531;SDS011;5822;51.000;5.874;2023-07-13T03:48:53;16.30;;;15.40;;
11531;SDS011;5822;51.000;5.874;2023-07-13T03:51:19;15.80;;;15.00;;
11531;SDS011;5822;51.000;5.874;2023-07-13T03:53:45;16.17;;;15.27;;
11531;SDS011;5822;51.000;5.874;2023-07-13T03:56:12;16.55;;;15.65;;
11531;SDS011;5822;51.000;5.874;2023-07-13T03:58:40;16.80;;;15.82;;
11531;SDS011;5822;51.000;5.874;2023-07-13T04:01:08;16.65;;;15.75;;
11531;SDS011;5822;51.000;5.874;2023-07-13T04:03:35;17.13;;;16.02;;
11531;SDS011;5822;51.000;5.874;2023-07-13T04:06:02;16.88;;;15.88;;
11531;SDS011;5822;51.000;5.874;2023-07-13T04:08:30;16.50;;;15.60;;
11531;SDS011;5822;51.000;5.874;2023-07-13T04:10:59;16.67;;;15.68;;
11531;SDS011;5822;51.000;5.874;2023-07-13T04:13:25;16.52;;;15.63;;
11531;SDS011;5822;51.000;5.874;2023-07-13T04:15:52;16.80;;;15.80;;
11531;SDS011;5822;51.000;5.874;2023-07-13T04:18:18;16.60;;;15.70;;
11531;SDS011;5822;51.000;5.874;2023-07-13T04:20:45;16.30;;;15.40;;
11531;SDS011;5822;51.000;5.874;2023-07-13T04:23:14;16.80;;;15.80;;
11531;SDS011;5822;51.000;5.874;2023-07-13T04:25:44;17.00;;;16.00;;
11531;SDS011;5822;51.000;5.874;2023-07-13T04:28:11;16.92;;;15.95;;
11531;SDS011;5822;51.000;5.874;2023-07-13T04:30:36;16.50;;;15.60;;
11531;SDS011;5822;51.000;5.874;2023-07-13T04:33:02;16.50;;;15.60;;
11531;SDS011;5822;51.000;5.874;2023-07-13T04:35:28;16.33;;;15.43;;
11531;SDS011;5822;51.000;5.874;2023-07-13T04:37:53;16.47;;;15.57;;
11531;SDS011;5822;51.000;5.874;2023-07-13T04:40:19;16.30;;;15.40;;
11531;SDS011;5822;51.000;5.874;2023-07-13T04:42:45;16.48;;;15.57;;
11531;SDS011;5822;51.000;5.874;2023-07-13T04:45:12;16.60;;;15.70;;
11531;SDS011;5822;51.000;5.874;2023-07-13T04:47:39;16.50;;;15.53;;
11531;SDS011;5822;51.000;5.874;2023-07-13T04:50:05;16.50;;;15.60;;
11531;SDS011;5822;51.000;5.874;2023-07-13T04:52:32;16.70;;;15.80;;
11531;SDS011;5822;51.000;5.874;2023-07-13T04:54:58;16.20;;;15.30;;
11531;SDS011;5822;51.000;5.874;2023-07-13T04:57:25;16.30;;;15.40;;
11531;SDS011;5822;51.000;5.874;2023-07-13T04:59:51;16.55;;;15.60;;
11531;SDS011;5822;51.000;5.874;2023-07-13T05:02:17;16.20;;;15.30;;
11531;SDS011;5822;51.000;5.874;2023-07-13T05:04:46;16.23;;;15.32;;
11531;SDS011;5822;51.000;5.874;2023-07-13T05:07:12;16.40;;;15.50;;
11531;SDS011;5822;51.000;5.874;2023-07-13T05:09:38;17.10;;;16.10;;
11531;SDS011;5822;51.000;5.874;2023-07-13T05:12:05;16.58;;;15.68;;
11531;SDS011;5822;51.000;5.874;2023-07-13T05:14:32;16.80;;;15.80;;
11531;SDS011;5822;51.000;5.874;2023-07-13T05:16:57;16.80;;;15.80;;
11531;SDS011;5822;51.000;5.874;2023-07-13T05:19:23;16.85;;;15.85;;
11531;SDS011;5822;51.000;5.874;2023-07-13T05:21:49;16.30;;;15.40;;
11531;SDS011;5822;51.000;5.874;2023-07-13T05:24:16;16.38;;;15.48;;
11531;SDS011;5822;51.000;5.874;2023-07-13T05:26:43;16.65;;;15.75;;
11531;SDS011;5822;51.000;5.874;2023-07-13T05:29:09;16.35;;;15.45;;
11531;SDS011;5822;51.000;5.874;2023-07-13T05:31:34;16.40;;;15.50;;
11531;SDS011;5822;51.000;5.874;2023-07-13T05:34:00;16.33;;;15.43;;
11531;SDS011;5822;51.000;5.874;2023-07-13T05:36:26;16.43;;;15.53;;
11531;SDS011;5822;51.000;5.874;2023-07-13T05:38:51;16.60;;;15.60;;
11531;SDS011;5822;51.000;5.874;2023-07-13T05:41:17;16.80;;;15.80;;
11531;SDS011;5822;51.000;5.874;2023-07-13T05:43:42;16.50;;;15.60;;
11531;SDS011;5822;51.000;5.874;2023-07-13T05:46:08;17.05;;;16.05;;
11531;SDS011;5822;51.000;5.874;2023-07-13T05:48:33;16.93;;;15.93;;
11531;SDS011;5822;51.000;5.874;2023-07-13T05:51:00;16.90;;;15.90;;
11531;SDS011;5822;51.000;5.874;2023-07-13T05:53:26;16.50;;;15.60;;
11531;SDS011;5822;51.000;5.874;2023-07-13T05:55:53;16.50;;;15.60;;
11531;SDS011;5822;51.000;5.874;2023-07-13T05:58:20;16.50;;;15.55;;
11531;SDS011;5822;51.000;5.874;2023-07-13T06:00:47;16.23;;;15.30;;
11531;SDS011;5822;51.000;5.874;2023-07-13T06:03:12;16.73;;;15.75;;
11531;SDS011;5822;51.000;5.874;2023-07-13T06:05:39;17.37;;;16.37;;
11531;SDS011;5822;51.000;5.874;2023-07-13T06:08:05;17.20;;;16.20;;
11531;SDS011;5822;51.000;5.874;2023-07-13T06:10:32;18.63;;;17.52;;
11531;SDS011;5822;51.000;5.874;2023-07-13T06:12:58;18.20;;;17.20;;
11531;SDS011;5822;51.000;5.874;2023-07-13T06:15:24;18.10;;;17.17;;
11531;SDS011;5822;51.000;5.874;2023-07-13T06:17:50;18.73;;;17.63;;
11531;SDS011;5822;51.000;5.874;2023-07-13T06:20:15;19.00;;;17.90;;
11531;SDS011;5822;51.000;5.874;2023-07-13T06:22:41;18.77;;;17.77;;
11531;SDS011;5822;51.000;5.874;2023-07-13T06:25:07;18.27;;;17.27;;
11531;SDS011;5822;51.000;5.874;2023-07-13T06:27:33;18.92;;;17.83;;
11531;SDS011;5822;51.000;5.874;2023-07-13T06:29:58;18.40;;;17.40;;
11531;SDS011;5822;51.000;5.874;2023-07-13T06:32:24;17.60;;;16.70;;
11531;SDS011;5822;51.000;5.874;2023-07-13T06:34:50;18.17;;;17.08;;
11531;SDS011;5822;51.000;5.874;2023-07-13T06:37:17;18.95;;;17.85;;
11531;SDS011;5822;51.000;5.874;2023-07-13T06:39:43;19.00;;;17.80;;
11531;SDS011;5822;51.000;5.874;2023-07-13T06:42:08;18.73;;;17.63;;
11531;SDS011;5822;51.000;5.874;2023-07-13T06:44:34;18.92;;;17.83;;
11531;SDS011;5822;51.000;5.874;2023-07-13T06:47:00;18.93;;;17.83;;
11531;SDS011;5822;51.000;5.874;2023-07-13T06:49:25;18.85;;;17.75;;
11531;SDS011;5822;51.000;5.874;2023-07-13T06:51:51;18.63;;;17.63;;
11531;SDS011;5822;51.000;5.874;2023-07-13T06:54:17;17.97;;;17.07;;
11531;SDS011;5822;51.000;5.874;2023-07-13T06:56:42;18.27;;;17.27;;
11531;SDS011;5822;51.000;5.874;2023-07-13T06:59:08;18.50;;;17.50;;
11531;SDS011;5822;51.000;5.874;2023-07-13T07:01:34;18.55;;;17.50;;
11531;SDS011;5822;51.000;5.874;2023-07-13T07:03:59;18.48;;;17.38;;
11531;SDS011;5822;51.000;5.874;2023-07-13T07:06:25;18.70;;;17.50;;
11531;SDS011;5822;51.000;5.874;2023-07-13T07:08:51;18.90;;;17.80;;
11531;SDS011;5822;51.000;5.874;2023-07-13T07:11:18;18.90;;;17.80;;
11531;SDS011;5822;51.000;5.874;2023-07-13T07:13:47;19.00;;;17.90;;
11531;SDS011;5822;51.000;5.874;2023-07-13T07:16:13;18.90;;;17.80;;
11531;SDS011;5822;51.000;5.874;2023-07-13T07:18:39;19.03;;;17.93;;
11531;SDS011;5822;51.000;5.874;2023-07-13T07:21:05;19.20;;;18.10;;
11531;SDS011;5822;51.000;5.874;2023-07-13T07:23:31;18.38;;;17.38;;
11531;SDS011;5822;51.000;5.874;2023-07-13T07:25:57;18.88;;;17.77;;
11531;SDS011;5822;51.000;5.874;2023-07-13T07:28:23;18.90;;;17.88;;
11531;SDS011;5822;51.000;5.874;2023-07-13T07:30:49;18.90;;;17.90;;
11531;SDS011;5822;51.000;5.874;2023-07-13T07:33:18;18.57;;;17.47;;
11531;SDS011;5822;51.000;5.874;2023-07-13T07:35:44;18.90;;;17.87;;
11531;SDS011;5822;51.000;5.874;2023-07-13T07:38:09;18.95;;;17.90;;
11531;SDS011;5822;51.000;5.874;2023-07-13T07:40:39;18.47;;;17.47;;
11531;SDS011;5822;51.000;5.874;2023-07-13T07:43:06;18.10;;;17.10;;
11531;SDS011;5822;51.000;5.874;2023-07-13T07:45:35;18.27;;;17.27;;
11531;SDS011;5822;51.000;5.874;2023-07-13T07:48:03;18.20;;;17.20;;
11531;SDS011;5822;51.000;5.874;2023-07-13T07:50:29;18.33;;;17.33;;
11531;SDS011;5822;51.000;5.874;2023-07-13T07:52:55;18.20;;;17.20;;
11531;SDS011;5822;51.000;5.874;2023-07-13T07:55:22;18.30;;;17.30;;
11531;SDS011;5822;51.000;5.874;2023-07-13T07:57:50;18.08;;;17.00;;
11531;SDS011;5822;51.000;5.874;2023-07-13T08:00:16;18.33;;;17.33;;
11531;SDS011;5822;51.000;5.874;2023-07-13T08:02:42;17.92;;;16.92;;
11531;SDS011;5822;51.000;5.874;2023-07-13T08:05:08;17.40;;;16.40;;
11531;SDS011;5822;51.000;5.874;2023-07-13T08:07:34;18.35;;;17.25;;
11531;SDS011;5822;51.000;5.874;2023-07-13T08:10:01;18.17;;;17.08;;
11531;SDS011;5822;51.000;5.874;2023-07-13T08:12:27;18.30;;;17.20;;
11531;SDS011;5822;51.000;5.874;2023-07-13T08:14:52;17.90;;;16.90;;
11531;SDS011;5822;51.000;5.874;2023-07-13T08:17:25;17.75;;;16.75;;
11531;SDS011;5822;51.000;5.874;2023-07-13T08:19:51;18.13;;;17.08;;
11531;SDS011;5822;51.000;5.874;2023-07-13T08:22:17;18.08;;;17.08;;
11531;SDS011;5822;51.000;5.874;2023-07-13T08:24:42;17.90;;;16.90;;
11531;SDS011;5822;51.000;5.874;2023-07-13T08:27:09;17.80;;;16.80;;
11531;SDS011;5822;51.000;5.874;2023-07-13T08:29:36;17.55;;;16.55;;
11531;SDS011;5822;51.000;5.874;2023-07-13T08:32:03;17.88;;;16.90;;
11531;SDS011;5822;51.000;5.874;2023-07-13T08:34:30;17.60;;;16.60;;
11531;SDS011;5822;51.000;5.874;2023-07-13T08:36:56;18.17;;;17.17;;
11531;SDS011;5822;51.000;5.874;2023-07-13T08:39:22;18.00;;;17.00;;
11531;SDS011;5822;51.000;5.874;2023-07-13T08:41:47;17.70;;;16.70;;
11531;SDS011;5822;51.000;5.874;2023-07-13T08:44:22;17.65;;;16.75;;
11531;SDS011;5822;51.000;5.874;2023-07-13T08:46:55;19.15;;;17.95;;
11531;SDS011;5822;51.000;5.874;2023-07-13T08:49:23;18.48;;;17.38;;
11531;SDS011;5822;51.000;5.874;2023-07-13T08:52:13;17.92;;;16.92;;
11531;SDS011;5822;51.000;5.874;2023-07-13T08:54:57;17.58;;;16.67;;
11531;SDS011;5822;51.000;5.874;2023-07-13T08:57:31;18.65;;;17.55;;
11531;SDS011;5822;51.000;5.874;2023-07-13T08:59:58;18.10;;;17.10;;
11531;SDS011;5822;51.000;5.874;2023-07-13T09:02:26;18.13;;;17.13;;
11531;SDS011;5822;51.000;5.874;2023-07-13T09:05:09;17.67;;;16.67;;
11531;SDS011;5822;51.000;5.874;2023-07-13T09:07:46;17.20;;;16.30;;
11531;SDS011;5822;51.000;5.874;2023-07-13T09:10:32;17.50;;;16.50;;
11531;SDS011;5822;51.000;5.874;2023-07-13T09:15:49;17.42;;;16.42;;
11531;SDS011;5822;51.000;5.874;2023-07-13T09:18:19;17.30;;;16.40;;
11531;SDS011;5822;51.000;5.874;2023-07-13T09:20:51;17.83;;;16.83;;
11531;SDS011;5822;51.000;5.874;2023-07-13T09:23:28;18.10;;;17.00;;
11531;SDS011;5822;51.000;5.874;2023-07-13T09:26:05;18.60;;;17.40;;
11531;SDS011;5822;51.000;5.874;2023-07-13T09:28:47;17.60;;;16.60;;
11531;SDS011;5822;51.000;5.874;2023-07-13T09:31:28;18.40;;;17.40;;
11531;SDS011;5822;51.000;5.874;2023-07-13T09:34:01;17.88;;;16.88;;
11531;SDS011;5822;51.000;5.874;2023-07-13T09:36:28;18.30;;;17.30;;
11531;SDS011;5822;51.000;5.874;2023-07-13T09:38:58;18.77;;;17.77;;
11531;SDS011;5822;51.000;5.874;2023-07-13T09:41:41;19.17;;;18.17;;
11531;SDS011;5822;51.000;5.874;2023-07-13T09:44:36;19.85;;;18.70;;
11531;SDS011;5822;51.000;5.874;2023-07-13T09:47:12;19.70;;;18.60;;
11531;SDS011;5822;51.000;5.874;2023-07-13T09:49:41;20.30;;;19.20;;
11531;SDS011;5822;51.000;5.874;2023-07-13T09:52:13;20.50;;;19.40;;
11531;SDS011;5822;51.000;5.874;2023-07-13T09:54:43;20.20;;;19.02;;
11531;SDS011;5822;51.000;5.874;2023-07-13T09:57:23;20.63;;;19.50;;
11531;SDS011;5822;51.000;5.874;2023-07-13T09:59:51;20.00;;;18.90;;
11531;SDS011;5822;51.000;5.874;2023-07-13T10:05:06;19.95;;;18.85;;
11531;SDS011;5822;51.000;5.874;2023-07-13T10:07:39;19.98;;;18.88;;
11531;SDS011;5822;51.000;5.874;2023-07-13T10:10:16;20.42;;;19.33;;
11531;SDS011;5822;51.000;5.874;2023-07-13T10:12:45;20.50;;;19.38;;
11531;SDS011;5822;51.000;5.874;2023-07-13T10:15:19;20.85;;;19.65;;
11531;SDS011;5822;51.000;5.874;2023-07-13T10:17:53;20.48;;;19.27;;
11531;SDS011;5822;51.000;5.874;2023-07-13T10:20:22;20.60;;;19.40;;
11531;SDS011;5822;51.000;5.874;2023-07-13T10:22:50;20.27;;;19.17;;
11531;SDS011;5822;51.000;5.874;2023-07-13T10:25:22;20.67;;;19.50;;
11531;SDS011;5822;51.000;5.874;2023-07-13T10:27:58;21.40;;;20.10;;
11531;SDS011;5822;51.000;5.874;2023-07-13T10:30:48;21.42;;;20.23;;
11531;SDS011;5822;51.000;5.874;2023-07-13T10:33:16;20.70;;;19.60;;
11531;SDS011;5822;51.000;5.874;2023-07-13T10:35:42;20.70;;;19.50;;
11531;SDS011;5822;51.000;5.874;2023-07-13T10:38:12;20.83;;;19.73;;
11531;SDS011;5822;51.000;5.874;2023-07-13T10:40:43;19.98;;;18.98;;
11531;SDS011;5822;51.000;5.874;2023-07-13T10:43:20;19.60;;;18.50;;
11531;SDS011;5822;51.000;5.874;2023-07-13T10:45:51;19.80;;;18.70;;
11531;SDS011;5822;51.000;5.874;2023-07-13T10:48:19;19.80;;;18.70;;
11531;SDS011;5822;51.000;5.874;2023-07-13T10:50:48;20.15;;;19.05;;
11531;SDS011;5822;51.000;5.874;2023-07-13T10:53:31;19.30;;;18.30;;
11531;SDS011;5822;51.000;5.874;2023-07-13T10:58:34;20.00;;;18.90;;
11531;SDS011;5822;51.000;5.874;2023-07-13T11:08:54;19.58;;;18.48;;
11531;SDS011;5822;51.000;5.874;2023-07-13T11:18:48;19.92;;;18.83;;
11531;SDS011;5822;51.000;5.874;2023-07-13T11:21:16;20.83;;;19.63;;
11531;SDS011;5822;51.000;5.874;2023-07-13T11:23:42;20.40;;;19.20;;
11531;SDS011;5822;51.000;5.874;2023-07-13T11:29:23;19.65;;;18.55;;
11531;SDS011;5822;51.000;5.874;2023-07-13T11:31:56;20.50;;;19.40;;
11531;SDS011;5822;51.000;5.874;2023-07-13T11:34:28;20.20;;;19.10;;
11531;SDS011;5822;51.000;5.874;2023-07-13T11:36:57;20.67;;;19.58;;
11531;SDS011;5822;51.000;5.874;2023-07-13T11:39:27;19.63;;;18.42;;
11531;SDS011;5822;51.000;5.874;2023-07-13T11:42:06;18.65;;;17.65;;
11531;SDS011;5822;51.000;5.874;2023-07-13T11:44:41;18.98;;;17.98;;
11531;SDS011;5822;51.000;5.874;2023-07-13T11:47:14;19.33;;;18.33;;
11531;SDS011;5822;51.000;5.874;2023-07-13T11:49:47;19.27;;;18.27;;
11531;SDS011;5822;51.000;5.874;2023-07-13T11:52:16;19.03;;;18.03;;
11531;SDS011;5822;51.000;5.874;2023-07-13T11:54:51;19.75;;;18.58;;
11531;SDS011;5822;51.000;5.874;2023-07-13T11:57:30;21.35;;;20.25;;
11531;SDS011;5822;51.000;5.874;2023-07-13T11:59:59;19.90;;;18.70;;
11531;SDS011;5822;51.000;5.874;2023-07-13T12:02:28;20.65;;;19.55;;
11531;SDS011;5822;51.000;5.874;2023-07-13T12:04:57;19.83;;;18.80;;
11531;SDS011;5822;51.000;5.874;2023-07-13T12:07:24;19.88;;;18.77;;
11531;SDS011;5822;51.000;5.874;2023-07-13T12:09:59;19.88;;;18.77;;
11531;SDS011;5822;51.000;5.874;2023-07-13T12:12:36;19.20;;;18.10;;
11531;SDS011;5822;51.000;5.874;2023-07-13T12:15:08;19.92;;;18.83;;
11531;SDS011;5822;51.000;5.874;2023-07-13T12:17:35;21.48;;;20.27;;
11531;SDS011;5822;51.000;5.874;2023-07-13T12:20:03;20.15;;;19.05;;
11531;SDS011;5822;51.000;5.874;2023-07-13T12:22:45;20.33;;;19.23;;
11531;SDS011;5822;51.000;5.874;2023-07-13T12:25:12;20.50;;;19.30;;
11531;SDS011;5822;51.000;5.874;2023-07-13T12:27:38;20.23;;;19.13;;
11531;SDS011;5822;51.000;5.874;2023-07-13T12:30:06;19.87;;;18.77;;
11531;SDS011;5822;51.000;5.874;2023-07-13T12:32:55;20.80;;;19.60;;
11531;SDS011;5822;51.000;5.874;2023-07-13T12:35:22;20.98;;;19.77;;
11531;SDS011;5822;51.000;5.874;2023-07-13T12:37:47;20.27;;;19.17;;
11531;SDS011;5822;51.000;5.874;2023-07-13T12:40:16;21.20;;;20.00;;
11531;SDS011;5822;51.000;5.874;2023-07-13T12:42:58;21.33;;;20.13;;
11531;SDS011;5822;51.000;5.874;2023-07-13T12:45:25;20.90;;;19.80;;
11531;SDS011;5822;51.000;5.874;2023-07-13T12:47:54;20.73;;;19.52;;
11531;SDS011;5822;51.000;5.874;2023-07-13T12:50:24;20.88;;;19.77;;
11531;SDS011;5822;51.000;5.874;2023-07-13T12:53:06;21.52;;;20.33;;
11531;SDS011;5822;51.000;5.874;2023-07-13T12:55:43;20.85;;;19.75;;
11531;SDS011;5822;51.000;5.874;2023-07-13T12:58:16;20.58;;;19.48;;
11531;SDS011;5822;51.000;5.874;2023-07-13T13:00:56;21.00;;;19.90;;
11531;SDS011;5822;51.000;5.874;2023-07-13T13:06:01;21.40;;;20.30;;
11531;SDS011;5822;51.000;5.874;2023-07-13T13:08:32;20.67;;;19.58;;
11531;SDS011;5822;51.000;5.874;2023-07-13T13:11:00;22.48;;;21.17;;
11531;SDS011;5822;51.000;5.874;2023-07-13T13:13:26;22.42;;;21.23;;
11531;SDS011;5822;51.000;5.874;2023-07-13T13:15:52;20.90;;;19.80;;
11531;SDS011;5822;51.000;5.874;2023-07-13T13:18:19;21.33;;;20.23;;
11531;SDS011;5822;51.000;5.874;2023-07-13T13:20:46;20.75;;;19.65;;
11531;SDS011;5822;51.000;5.874;2023-07-13T13:23:14;21.60;;;20.30;;
11531;SDS011;5822;51.000;5.874;2023-07-13T13:25:42;21.75;;;20.55;;
11531;SDS011;5822;51.000;5.874;2023-07-13T13:28:17;21.75;;;20.55;;
11531;SDS011;5822;51.000;5.874;2023-07-13T13:30:45;22.20;;;20.98;;
11531;SDS011;5822;51.000;5.874;2023-07-13T13:33:16;21.90;;;20.70;;
11531;SDS011;5822;51.000;5.874;2023-07-13T13:35:42;21.48;;;20.27;;
11531;SDS011;5822;51.000;5.874;2023-07-13T13:38:12;21.67;;;20.47;;
11531;SDS011;5822;51.000;5.874;2023-07-13T13:40:39;21.08;;;19.98;;
11531;SDS011;5822;51.000;5.874;2023-07-13T13:43:21;21.88;;;20.67;;
11531;SDS011;5822;51.000;5.874;2023-07-13T13:45:52;22.63;;;21.42;;
11531;SDS011;5822;51.000;5.874;2023-07-13T13:48:32;22.50;;;21.30;;
11531;SDS011;5822;51.000;5.874;2023-07-13T13:51:01;23.10;;;21.90;;
11531;SDS011;5822;51.000;5.874;2023-07-13T13:53:37;21.80;;;20.60;;
11531;SDS011;5822;51.000;5.874;2023-07-13T13:56:04;21.03;;;19.93;;
11531;SDS011;5822;51.000;5.874;2023-07-13T13:58:30;20.75;;;19.65;;
11531;SDS011;5822;51.000;5.874;2023-07-13T14:00:55;20.60;;;19.50;;
11531;SDS011;5822;51.000;5.874;2023-07-13T14:03:23;21.10;;;20.00;;
11531;SDS011;5822;51.000;5.874;2023-07-13T14:05:49;20.40;;;19.20;;
11531;SDS011;5822;51.000;5.874;2023-07-13T14:08:16;19.87;;;18.77;;
11531;SDS011;5822;51.000;5.874;2023-07-13T14:10:46;19.73;;;18.63;;
11531;SDS011;5822;51.000;5.874;2023-07-13T14:13:25;21.53;;;20.33;;
11531;SDS011;5822;51.000;5.874;2023-07-13T14:16:09;21.65;;;20.45;;
11531;SDS011;5822;51.000;5.874;2023-07-13T14:18:40;20.83;;;19.63;;
11531;SDS011;5822;51.000;5.874;2023-07-13T14:21:23;20.47;;;19.33;;
11531;SDS011;5822;51.000;5.874;2023-07-13T14:23:49;20.95;;;19.75;;
11531;SDS011;5822;51.000;5.874;2023-07-13T14:26:25;20.85;;;19.75;;
11531;SDS011;5822;51.000;5.874;2023-07-13T14:28:54;20.70;;;19.50;;
11531;SDS011;5822;51.000;5.874;2023-07-13T14:31:21;20.67;;;19.58;;
11531;SDS011;5822;51.000;5.874;2023-07-13T14:54:33;20.42;;;19.33;;
11531;SDS011;5822;51.000;5.874;2023-07-13T14:56:59;20.50;;;19.40;;
11531;SDS011;5822;51.000;5.874;2023-07-13T14:59:26;21.23;;;20.13;;
11531;SDS011;5822;51.000;5.874;2023-07-13T15:01:52;21.10;;;20.00;;
11531;SDS011;5822;51.000;5.874;2023-07-13T15:04:17;22.40;;;21.30;;
11531;SDS011;5822;51.000;5.874;2023-07-13T15:06:53;22.63;;;21.52;;
11531;SDS011;5822;51.000;5.874;2023-07-13T15:09:24;23.02;;;21.92;;
11531;SDS011;5822;51.000;5.874;2023-07-13T15:11:57;23.73;;;22.50;;
11531;SDS011;5822;51.000;5.874;2023-07-13T15:14:24;24.13;;;22.92;;
11531;SDS011;5822;51.000;5.874;2023-07-13T15:16:51;22.92;;;21.75;;
11531;SDS011;5822;51.000;5.874;2023-07-13T15:19:19;23.48;;;22.27;;
11531;SDS011;5822;51.000;5.874;2023-07-13T15:21:46;22.10;;;21.00;;
11531;SDS011;5822;51.000;5.874;2023-07-13T15:24:12;23.83;;;22.63;;
11531;SDS011;5822;51.000;5.874;2023-07-13T15:26:39;23.27;;;22.08;;
11531;SDS011;5822;51.000;5.874;2023-07-13T15:29:05;25.08;;;23.88;;
11531;SDS011;5822;51.000;5.874;2023-07-13T15:31:31;22.63;;;21.42;;
11531;SDS011;5822;51.000;5.874;2023-07-13T15:33:59;22.65;;;21.55;;
11531;SDS011;5822;51.000;5.874;2023-07-13T15:36:25;20.88;;;19.77;;
11531;SDS011;5822;51.000;5.874;2023-07-13T15:38:52;21.00;;;19.90;;
11531;SDS011;5822;51.000;5.874;2023-07-13T15:41:23;20.83;;;19.83;;
11531;SDS011;5822;51.000;5.874;2023-07-13T15:43:52;20.85;;;19.75;;
11531;SDS011;5822;51.000;5.874;2023-07-13T15:46:19;21.20;;;20.10;;
11531;SDS011;5822;51.000;5.874;2023-07-13T15:48:49;22.13;;;21.02;;
11531;SDS011;5822;51.000;5.874;2023-07-13T15:51:20;22.30;;;21.10;;
11531;SDS011;5822;51.000;5.874;2023-07-13T15:53:48;22.05;;;20.95;;
11531;SDS011;5822;51.000;5.874;2023-07-13T15:56:18;22.40;;;21.20;;
11531;SDS011;5822;51.000;5.874;2023-07-13T15:58:49;22.30;;;21.10;;
11531;SDS011;5822;51.000;5.874;2023-07-13T16:01:16;21.98;;;20.88;;
11531;SDS011;5822;51.000;5.874;2023-07-13T16:03:49;23.42;;;22.23;;
11531;SDS011;5822;51.000;5.874;2023-07-13T16:06:18;22.88;;;21.70;;
11531;SDS011;5822;51.000;5.874;2023-07-13T16:08:47;22.98;;;21.88;;
11531;SDS011;5822;51.000;5.874;2023-07-13T16:11:21;23.65;;;22.55;;
11531;SDS011;5822;51.000;5.874;2023-07-13T16:13:49;22.95;;;21.85;;
11531;SDS011;5822;51.000;5.874;2023-07-13T16:16:24;22.05;;;20.95;;
11531;SDS011;5822;51.000;5.874;2023-07-13T16:18:53;22.65;;;21.55;;